sensor_id;sensor_type;location;lat;lon;timestamp;P1;durP1;ratioP1;P2;durP2;ratioP2
23555;SDS011;11956;53.184;8.578;2023-08-12T05:36:52;76.00;;;45.78;;
23555;SDS011;11956;53.184;8.578;2023-08-12T05:39:53;66.97;;;44.20;;
23555;SDS011;11956;53.184;8.578;2023-08-12T05:42:53;54.60;;;36.92;;
23555;SDS011;11956;53.184;8.578;2023-08-12T05:45:54;56.15;;;38.08;;
23555;SDS011;11956;53.184;8.578;2023-08-12T05:48:55;51.83;;;35.55;;
23555;SDS011;11956;53.184;8.578;2023-08-12T05:51:56;45.50;;;31.02;;
23555;SDS011;11956;53.184;8.578;2023-08-12T05:54:57;48.97;;;35.22;;
23555;SDS011;11956;53.184;8.578;2023-08-12T05:57:57;54.05;;;37.53;;
23555;SDS011;11956;53.184;8.578;2023-08-12T06:00:58;51.08;;;35.05;;
23555;SDS011;11956;53.184;8.578;2023-08-12T06:03:59;40.42;;;31.88;;
23555;SDS011;11956;53.184;8.578;2023-08-12T06:07:00;32.97;;;24.98;;
23555;SDS011;11956;53.184;8.578;2023-08-12T06:10:01;33.75;;;24.90;;
23555;SDS011;11956;53.184;8.578;2023-08-12T06:13:02;28.15;;;22.13;;
23555;SDS011;11956;53.184;8.578;2023-08-12T06:16:03;26.15;;;20.40;;
23555;SDS011;11956;53.184;8.578;2023-08-12T06:19:04;34.55;;;25.08;;
23555;SDS011;11956;53.184;8.578;2023-08-12T06:22:05;28.02;;;20.52;;
23555;SDS011;11956;53.184;8.578;2023-08-12T06:25:06;18.30;;;15.88;;
23555;SDS011;11956;53.184;8.578;2023-08-12T06:28:08;20.75;;;17.05;;
23555;SDS011;11956;53.184;8.578;2023-08-12T06:31:10;16.92;;;13.75;;
23555;SDS011;11956;53.184;8.578;2023-08-12T06:34:10;18.13;;;12.75;;
23555;SDS011;11956;53.184;8.578;2023-08-12T06:37:11;13.60;;;10.35;;
23555;SDS011;11956;53.184;8.578;2023-08-12T06:40:12;15.38;;;11.93;;
23555;SDS011;11956;53.184;8.578;2023-08-12T06:43:13;13.18;;;9.82;;
23555;SDS011;11956;53.184;8.578;2023-08-12T06:46:14;13.75;;;11.20;;
23555;SDS011;11956;53.184;8.578;2023-08-12T06:49:15;14.98;;;10.95;;
23555;SDS011;11956;53.184;8.578;2023-08-12T06:52:16;19.73;;;12.52;;
23555;SDS011;11956;53.184;8.578;2023-08-12T06:55:17;14.35;;;9.90;;
23555;SDS011;11956;53.184;8.578;2023-08-12T06:58:17;15.43;;;12.00;;
23555;SDS011;11956;53.184;8.578;2023-08-12T07:01:18;20.00;;;14.30;;
23555;SDS011;11956;53.184;8.578;2023-08-12T07:04:19;18.45;;;13.93;;
23555;SDS011;11956;53.184;8.578;2023-08-12T07:07:20;18.83;;;12.38;;
23555;SDS011;11956;53.184;8.578;2023-08-12T07:10:21;16.98;;;13.82;;
23555;SDS011;11956;53.184;8.578;2023-08-12T07:13:22;19.55;;;14.95;;
23555;SDS011;11956;53.184;8.578;2023-08-12T07:16:23;20.13;;;16.42;;
23555;SDS011;11956;53.184;8.578;2023-08-12T07:19:24;19.85;;;15.02;;
23555;SDS011;11956;53.184;8.578;2023-08-12T07:22:24;16.50;;;13.63;;
23555;SDS011;11956;53.184;8.578;2023-08-12T07:25:25;16.20;;;13.07;;
23555;SDS011;11956;53.184;8.578;2023-08-12T07:28:26;17.25;;;14.77;;
23555;SDS011;11956;53.184;8.578;2023-08-12T07:31:27;19.00;;;14.20;;
23555;SDS011;11956;53.184;8.578;2023-08-12T07:34:27;16.55;;;13.18;;
23555;SDS011;11956;53.184;8.578;2023-08-12T07:37:28;17.40;;;11.90;;
23555;SDS011;11956;53.184;8.578;2023-08-12T07:40:29;15.07;;;11.85;;
23555;SDS011;11956;53.184;8.578;2023-08-12T07:43:30;15.02;;;10.60;;
23555;SDS011;11956;53.184;8.578;2023-08-12T07:46:31;11.63;;;9.65;;
23555;SDS011;11956;53.184;8.578;2023-08-12T07:49:32;8.98;;;7.28;;
23555;SDS011;11956;53.184;8.578;2023-08-12T07:52:33;11.02;;;8.73;;
23555;SDS011;11956;53.184;8.578;2023-08-12T07:55:34;9.13;;;6.60;;
23555;SDS011;11956;53.184;8.578;2023-08-12T07:58:35;13.05;;;9.15;;
23555;SDS011;11956;53.184;8.578;2023-08-12T08:01:36;9.48;;;7.38;;
23555;SDS011;11956;53.184;8.578;2023-08-12T08:04:36;12.63;;;7.63;;
23555;SDS011;11956;53.184;8.578;2023-08-12T08:07:37;9.10;;;7.70;;
23555;SDS011;11956;53.184;8.578;2023-08-12T08:10:38;11.05;;;6.82;;
23555;SDS011;11956;53.184;8.578;2023-08-12T08:13:39;7.57;;;6.30;;
23555;SDS011;11956;53.184;8.578;2023-08-12T08:16:40;6.80;;;5.07;;
23555;SDS011;11956;53.184;8.578;2023-08-12T08:19:41;8.35;;;5.03;;
23555;SDS011;11956;53.184;8.578;2023-08-12T08:22:42;9.90;;;5.95;;
23555;SDS011;11956;53.184;8.578;2023-08-12T08:25:43;8.25;;;6.32;;
23555;SDS011;11956;53.184;8.578;2023-08-12T08:28:44;8.32;;;5.32;;
23555;SDS011;11956;53.184;8.578;2023-08-12T08:31:45;12.35;;;6.68;;
23555;SDS011;11956;53.184;8.578;2023-08-12T08:34:45;6.80;;;5.60;;
23555;SDS011;11956;53.184;8.578;2023-08-12T08:37:46;9.98;;;6.43;;
23555;SDS011;11956;53.184;8.578;2023-08-12T08:40:48;12.68;;;7.20;;
23555;SDS011;11956;53.184;8.578;2023-08-12T08:43:52;11.25;;;7.20;;
23555;SDS011;11956;53.184;8.578;2023-08-12T08:46:55;8.10;;;5.95;;
23555;SDS011;11956;53.184;8.578;2023-08-12T08:49:59;7.63;;;5.18;;
23555;SDS011;11956;53.184;8.578;2023-08-12T08:53:01;9.15;;;5.55;;
23555;SDS011;11956;53.184;8.578;2023-08-12T08:56:05;9.00;;;5.57;;
23555;SDS011;11956;53.184;8.578;2023-08-12T08:59:11;7.93;;;5.10;;
23555;SDS011;11956;53.184;8.578;2023-08-12T09:02:21;12.45;;;7.78;;
23555;SDS011;11956;53.184;8.578;2023-08-12T09:05:23;11.27;;;6.95;;
23555;SDS011;11956;53.184;8.578;2023-08-12T09:08:25;9.43;;;6.93;;
23555;SDS011;11956;53.184;8.578;2023-08-12T09:11:30;11.02;;;8.32;;
23555;SDS011;11956;53.184;8.578;2023-08-12T09:14:33;12.02;;;9.00;;
23555;SDS011;11956;53.184;8.578;2023-08-12T09:17:35;14.73;;;9.82;;
23555;SDS011;11956;53.184;8.578;2023-08-12T09:20:36;15.10;;;11.82;;
23555;SDS011;11956;53.184;8.578;2023-08-12T09:23:37;17.70;;;12.27;;
23555;SDS011;11956;53.184;8.578;2023-08-12T09:26:39;14.30;;;11.23;;
23555;SDS011;11956;53.184;8.578;2023-08-12T09:29:42;17.15;;;13.30;;
23555;SDS011;11956;53.184;8.578;2023-08-12T09:32:46;15.23;;;12.02;;
23555;SDS011;11956;53.184;8.578;2023-08-12T09:36:03;16.10;;;12.82;;
23555;SDS011;11956;53.184;8.578;2023-08-12T09:39:07;18.15;;;14.32;;
23555;SDS011;11956;53.184;8.578;2023-08-12T09:42:11;19.42;;;15.20;;
23555;SDS011;11956;53.184;8.578;2023-08-12T09:45:12;19.20;;;15.23;;
23555;SDS011;11956;53.184;8.578;2023-08-12T09:48:13;18.40;;;15.82;;
23555;SDS011;11956;53.184;8.578;2023-08-12T09:51:17;21.55;;;17.23;;
23555;SDS011;11956;53.184;8.578;2023-08-12T09:54:18;23.42;;;19.42;;
23555;SDS011;11956;53.184;8.578;2023-08-12T09:57:19;24.50;;;19.90;;
23555;SDS011;11956;53.184;8.578;2023-08-12T10:00:23;30.90;;;25.25;;
23555;SDS011;11956;53.184;8.578;2023-08-12T10:03:25;45.92;;;32.25;;
23555;SDS011;11956;53.184;8.578;2023-08-12T10:06:27;36.13;;;29.63;;
23555;SDS011;11956;53.184;8.578;2023-08-12T10:09:28;38.83;;;32.17;;
23555;SDS011;11956;53.184;8.578;2023-08-12T10:12:31;47.28;;;36.53;;
23555;SDS011;11956;53.184;8.578;2023-08-12T10:15:33;48.50;;;36.95;;
23555;SDS011;11956;53.184;8.578;2023-08-12T10:18:35;52.65;;;40.15;;
23555;SDS011;11956;53.184;8.578;2023-08-12T10:21:38;40.75;;;34.63;;
23555;SDS011;11956;53.184;8.578;2023-08-12T10:24:41;66.68;;;49.08;;
23555;SDS011;11956;53.184;8.578;2023-08-12T10:27:43;47.92;;;38.65;;
23555;SDS011;11956;53.184;8.578;2023-08-12T10:30:44;55.33;;;43.40;;
23555;SDS011;11956;53.184;8.578;2023-08-12T10:33:45;54.28;;;41.22;;
23555;SDS011;11956;53.184;8.578;2023-08-12T10:36:56;61.28;;;48.22;;
23555;SDS011;11956;53.184;8.578;2023-08-12T10:40:04;64.15;;;47.15;;
23555;SDS011;11956;53.184;8.578;2023-08-12T10:43:13;75.00;;;52.05;;
23555;SDS011;11956;53.184;8.578;2023-08-12T10:46:21;66.50;;;50.85;;
23555;SDS011;11956;53.184;8.578;2023-08-12T10:49:29;54.00;;;43.63;;
23555;SDS011;11956;53.184;8.578;2023-08-12T10:52:39;46.38;;;35.83;;
23555;SDS011;11956;53.184;8.578;2023-08-12T10:55:40;54.88;;;41.20;;
23555;SDS011;11956;53.184;8.578;2023-08-12T10:58:44;48.17;;;36.97;;
23555;SDS011;11956;53.184;8.578;2023-08-12T11:01:46;42.97;;;34.80;;
23555;SDS011;11956;53.184;8.578;2023-08-12T11:04:48;49.60;;;39.45;;
23555;SDS011;11956;53.184;8.578;2023-08-12T11:07:56;45.35;;;37.92;;
23555;SDS011;11956;53.184;8.578;2023-08-12T11:11:02;56.05;;;44.25;;
23555;SDS011;11956;53.184;8.578;2023-08-12T11:14:05;52.03;;;41.70;;
23555;SDS011;11956;53.184;8.578;2023-08-12T11:17:15;58.45;;;46.92;;
23555;SDS011;11956;53.184;8.578;2023-08-12T11:20:16;58.00;;;44.35;;
23555;SDS011;11956;53.184;8.578;2023-08-12T11:23:17;51.70;;;41.30;;
23555;SDS011;11956;53.184;8.578;2023-08-12T11:26:21;65.03;;;47.92;;
23555;SDS011;11956;53.184;8.578;2023-08-12T11:29:23;66.05;;;48.83;;
23555;SDS011;11956;53.184;8.578;2023-08-12T11:32:24;51.88;;;41.67;;
23555;SDS011;11956;53.184;8.578;2023-08-12T12:11:05;29.38;;;26.00;;
23555;SDS011;11956;53.184;8.578;2023-08-12T12:14:07;27.75;;;24.83;;
23555;SDS011;11956;53.184;8.578;2023-08-12T12:17:09;27.55;;;24.70;;
23555;SDS011;11956;53.184;8.578;2023-08-12T12:20:10;26.58;;;24.02;;
23555;SDS011;11956;53.184;8.578;2023-08-12T23:38:08;13.43;;;4.82;;
23555;SDS011;11956;53.184;8.578;2023-08-12T23:41:09;9.98;;;4.28;;
23555;SDS011;11956;53.184;8.578;2023-08-12T23:44:10;7.80;;;3.90;;
23555;SDS011;11956;53.184;8.578;2023-08-12T23:47:11;12.02;;;3.72;;
23555;SDS011;11956;53.184;8.578;2023-08-12T23:50:13;13.45;;;4.70;;
23555;SDS011;11956;53.184;8.578;2023-08-12T23:53:14;12.32;;;4.45;;
23555;SDS011;11956;53.184;8.578;2023-08-12T23:56:15;11.38;;;4.03;;
23555;SDS011;11956;53.184;8.578;2023-08-12T23:59:17;10.15;;;4.28;;
